Time;durP1;ratioP1;P1;durP2;ratioP2;P2;SDS_P1;SDS_P2;PMS_P1;PMS_P2;Temp;Humidity;BMP_temperature;BMP_pressure;BME280_temperature;BME280_humidity;BME280_pressure;Samples;Min_cycle;Max_cycle;Signal;HPM_P1;HPM_P2
2022/11/15 00:00:25;;;;;;;39.20;36.53;;;11.60;99.90;;;;;;5053461;28;20040;-80
2022/11/15 00:02:55;;;;;;;37.28;35.03;;;11.70;99.90;;;;;;5036217;28;20024;-79
2022/11/15 00:05:21;;;;;;;38.85;36.10;;;11.80;99.90;;;;;;5053836;28;20033;-79
2022/11/15 00:07:47;;;;;;;38.30;35.75;;;11.70;99.90;;;;;;5055640;28;20025;-80
2022/11/15 00:10:13;;;;;;;37.00;33.90;;;11.80;99.90;;;;;;5033266;28;20028;-79
2022/11/15 00:12:39;;;;;;;36.70;34.08;;;11.70;99.90;;;;;;5035501;28;20062;-80
2022/11/15 00:15:06;;;;;;;33.97;31.75;;;11.80;99.90;;;;;;5054421;28;20040;-79
2022/11/15 00:17:32;;;;;;;36.30;33.45;;;11.70;99.90;;;;;;5034587;28;20044;-79
2022/11/15 00:19:58;;;;;;;37.35;33.78;;;11.80;99.90;;;;;;5052214;28;20422;-80
2022/11/15 00:22:24;;;;;;;32.85;29.88;;;11.70;99.90;;;;;;5051970;28;20044;-79
2022/11/15 00:24:50;;;;;;;33.85;31.58;;;11.70;99.90;;;;;;5034803;28;20394;-79
2022/11/15 00:27:16;;;;;;;33.17;30.45;;;11.70;99.90;;;;;;5054870;28;20040;-80
2022/11/15 00:29:43;;;;;;;29.67;27.25;;;11.70;99.90;;;;;;5052645;28;20393;-79
2022/11/15 00:32:10;;;;;;;32.22;29.67;;;11.80;99.90;;;;;;5053057;28;20037;-80
2022/11/15 00:34:36;;;;;;;30.95;28.35;;;11.80;99.90;;;;;;5035437;28;20025;-79
2022/11/15 00:37:02;;;;;;;31.02;28.80;;;11.80;99.90;;;;;;5036330;28;20029;-80
2022/11/15 00:39:28;;;;;;;29.88;27.52;;;11.70;99.90;;;;;;5052627;28;20067;-79
2022/11/15 00:41:54;;;;;;;27.98;25.95;;;11.80;99.90;;;;;;5054767;28;20045;-80
2022/11/15 00:44:20;;;;;;;27.30;25.13;;;11.70;99.90;;;;;;5053494;28;20036;-79
2022/11/15 00:46:46;;;;;;;27.75;25.77;;;11.70;99.90;;;;;;5053155;28;20040;-79
2022/11/15 00:49:12;;;;;;;28.60;26.35;;;11.80;99.90;;;;;;5052452;28;20029;-79
2022/11/15 00:51:38;;;;;;;26.42;23.75;;;11.80;99.90;;;;;;5035661;28;20036;-79
2022/11/15 00:54:05;;;;;;;26.95;25.05;;;11.80;99.90;;;;;;5053240;28;20037;-80
2022/11/15 00:56:31;;;;;;;26.27;24.25;;;11.80;99.90;;;;;;5054278;28;20371;-79
2022/11/15 00:58:57;;;;;;;26.67;24.40;;;11.90;99.90;;;;;;5052405;28;20045;-79
2022/11/15 01:01:23;;;;;;;26.48;24.13;;;11.80;99.90;;;;;;5030413;28;20045;-79
2022/11/15 01:03:49;;;;;;;25.42;23.58;;;11.90;99.90;;;;;;5048257;28;20034;-79
2022/11/15 01:06:15;;;;;;;23.63;21.73;;;11.90;99.90;;;;;;5016186;28;20059;-79
2022/11/15 01:08:41;;;;;;;24.77;23.05;;;11.90;99.90;;;;;;5039447;28;20186;-80
2022/11/15 01:11:09;;;;;;;23.92;22.02;;;11.80;99.90;;;;;;5051911;28;20044;-79
2022/11/15 01:13:36;;;;;;;22.13;20.42;;;11.70;99.90;;;;;;5018572;28;20473;-79
2022/11/15 01:16:08;;;;;;;25.38;22.75;;;11.70;99.90;;;;;;5054014;28;20037;-79
2022/11/15 01:18:34;;;;;;;24.45;22.30;;;11.70;99.90;;;;;;5048392;28;20048;-80
2022/11/15 01:21:04;;;;;;;24.50;22.48;;;11.70;99.90;;;;;;5052820;28;20029;-79
2022/11/15 01:23:30;;;;;;;24.80;22.70;;;11.70;99.90;;;;;;5034421;28;20033;-79
2022/11/15 01:26:00;;;;;;;23.88;22.05;;;11.70;99.90;;;;;;5052970;28;20286;-79
2022/11/15 01:28:30;;;;;;;24.83;23.13;;;11.80;99.90;;;;;;5034734;28;20025;-79
2022/11/15 01:30:59;;;;;;;26.27;23.88;;;11.80;99.90;;;;;;5050479;28;20599;-80
2022/11/15 01:33:25;;;;;;;25.00;22.67;;;11.80;99.90;;;;;;5034308;28;20033;-80
2022/11/15 01:35:51;;;;;;;23.27;21.27;;;11.80;99.90;;;;;;5053052;28;20032;-79
2022/11/15 01:38:17;;;;;;;23.58;21.77;;;11.80;99.90;;;;;;5052090;28;20036;-79
2022/11/15 01:40:43;;;;;;;25.08;22.95;;;11.70;99.90;;;;;;5053299;28;20049;-79
2022/11/15 01:43:39;;;;;;;24.98;22.65;;;11.70;99.90;;;;;;5033612;28;20037;-79
2022/11/15 01:46:25;;;;;;;23.42;21.42;;;11.70;99.90;;;;;;5016310;28;20030;-79
2022/11/15 01:48:52;;;;;;;22.55;20.80;;;11.70;99.90;;;;;;5018189;28;20033;-79
2022/11/15 01:51:18;;;;;;;22.77;20.70;;;11.70;99.90;;;;;;5018253;28;20033;-79
2022/11/15 01:53:47;;;;;;;22.83;20.75;;;11.80;99.90;;;;;;5017566;28;20025;-80
2022/11/15 01:56:15;;;;;;;22.50;20.70;;;11.80;99.90;;;;;;5018885;28;20384;-79
2022/11/15 01:58:42;;;;;;;22.50;20.58;;;11.80;99.90;;;;;;5034147;28;20032;-79
2022/11/15 02:01:08;;;;;;;21.92;20.00;;;11.90;99.90;;;;;;5031967;28;20497;-80
2022/11/15 02:03:49;;;;;;;23.65;21.42;;;11.90;99.90;;;;;;5046466;28;20025;-79
2022/11/15 02:06:15;;;;;;;;;;;11.90;99.90;;;;;;5029433;28;20033;-79
2022/11/15 02:08:41;;;;;;;21.17;19.08;;;11.90;99.90;;;;;;5032017;28;20376;-80
2022/11/15 02:11:08;;;;;;;22.55;20.45;;;11.90;99.90;;;;;;5006719;28;20028;-79
2022/11/15 02:13:35;;;;;;;22.90;21.00;;;12.00;99.90;;;;;;5050678;28;20041;-80
2022/11/15 02:16:22;;;;;;;23.25;20.88;;;12.00;99.90;;;;;;5034521;28;20040;-80
2022/11/15 02:19:13;;;;;;;22.33;20.50;;;12.00;99.90;;;;;;5031528;28;20516;-80
2022/11/15 02:22:00;;;;;;;21.00;19.33;;;12.00;99.90;;;;;;5013554;28;20045;-79
2022/11/15 02:24:29;;;;;;;23.45;21.63;;;12.00;99.90;;;;;;5050822;28;20381;-79
2022/11/15 02:27:27;;;;;;;23.55;21.35;;;11.90;99.90;;;;;;5051947;28;20033;-80
2022/11/15 02:30:18;;;;;;;22.67;21.05;;;11.90;99.90;;;;;;4970423;28;20050;-80
2022/11/15 02:33:00;;;;;;;23.58;21.58;;;12.00;99.90;;;;;;4956809;28;20031;-79
2022/11/15 02:35:31;;;;;;;24.02;22.00;;;11.90;99.90;;;;;;4970862;28;20026;-79
2022/11/15 02:37:59;;;;;;;21.83;19.83;;;12.00;99.90;;;;;;4970559;28;20031;-80
2022/11/15 02:40:48;;;;;;;23.88;21.85;;;11.90;99.90;;;;;;4923562;28;20043;-79
2022/11/15 02:49:17;;;;;;;22.75;21.00;;;12.00;99.90;;;;;;4884502;29;20043;-79
2022/11/15 02:51:44;;;;;;;22.13;20.25;;;12.00;99.90;;;;;;4879159;29;20036;-79
2022/11/15 02:54:21;;;;;;;22.23;20.17;;;11.90;99.90;;;;;;4893258;29;20063;-79
2022/11/15 02:56:47;;;;;;;21.65;19.40;;;12.00;99.90;;;;;;4877748;29;20044;-80
2022/11/15 02:59:15;;;;;;;22.85;21.02;;;12.00;99.90;;;;;;4876765;29;20060;-79
2022/11/15 03:01:59;;;;;;;24.27;22.48;;;12.00;99.90;;;;;;4875728;29;20052;-79
2022/11/15 03:05:09;;;;;;;22.20;20.63;;;12.00;99.90;;;;;;4895507;29;20040;-79
2022/11/15 03:07:44;;;;;;;23.67;21.80;;;12.00;99.90;;;;;;4890248;29;20497;-80
2022/11/15 03:10:19;;;;;;;23.67;21.92;;;12.00;99.90;;;;;;4889301;29;20536;-79
2022/11/15 03:12:54;;;;;;;22.77;21.00;;;12.00;99.90;;;;;;4890899;29;20037;-80
2022/11/15 03:15:30;;;;;;;24.00;22.00;;;12.00;99.90;;;;;;4876062;29;20051;-80
2022/11/15 03:18:00;;;;;;;23.80;21.80;;;12.00;99.90;;;;;;4872499;29;20036;-79
2022/11/15 03:20:27;;;;;;;22.33;20.43;;;12.00;99.90;;;;;;4919279;28;20054;-79
2022/11/15 03:22:53;;;;;;;22.90;20.58;;;12.00;99.90;;;;;;4967033;28;20042;-79
2022/11/15 03:25:20;;;;;;;23.60;21.58;;;12.00;99.90;;;;;;4968177;28;20046;-80
2022/11/15 03:27:49;;;;;;;23.15;21.17;;;12.00;99.90;;;;;;4945835;28;20027;-80
2022/11/15 03:30:15;;;;;;;23.95;21.98;;;12.00;99.90;;;;;;4948952;28;20055;-79
2022/11/15 03:32:51;;;;;;;24.00;20.92;;;12.10;99.90;;;;;;4972207;28;20042;-80
2022/11/15 03:35:19;;;;;;;23.67;22.08;;;12.10;99.90;;;;;;4972346;28;20039;-80
2022/11/15 03:37:53;;;;;;;23.20;21.15;;;12.10;99.90;;;;;;4948806;28;20139;-80
2022/11/15 03:40:24;;;;;;;22.95;21.23;;;12.10;99.90;;;;;;4973033;28;20488;-80
2022/11/15 03:42:58;;;;;;;21.67;19.92;;;12.10;99.90;;;;;;4971772;28;20047;-80
2022/11/15 03:45:32;;;;;;;21.67;19.92;;;12.10;99.90;;;;;;5044669;28;20045;-80
2022/11/15 03:48:21;;;;;;;22.70;20.63;;;12.10;99.90;;;;;;5033796;28;20048;-80
2022/11/15 03:50:47;;;;;;;22.15;20.27;;;12.10;99.90;;;;;;5034419;28;20492;-79
2022/11/15 03:53:13;;;;;;;22.45;20.25;;;12.10;99.90;;;;;;5036723;28;20033;-79
2022/11/15 03:55:40;;;;;;;21.15;19.38;;;12.10;99.90;;;;;;5053925;28;20041;-79
2022/11/15 03:58:06;;;;;;;19.77;18.35;;;12.10;99.90;;;;;;5054037;28;20478;-79
2022/11/15 04:00:32;;;;;;;22.33;20.85;;;12.20;99.90;;;;;;5030884;28;20413;-80
2022/11/15 04:02:58;;;;;;;24.00;21.95;;;12.20;99.90;;;;;;5054656;28;20033;-80
2022/11/15 04:05:24;;;;;;;23.73;21.98;;;12.20;99.90;;;;;;5051948;28;20033;-79
2022/11/15 04:07:50;;;;;;;21.38;20.08;;;12.20;99.90;;;;;;5032450;28;20037;-81
2022/11/15 04:10:16;;;;;;;21.65;20.02;;;12.30;99.90;;;;;;5053718;28;20040;-81
2022/11/15 04:12:46;;;;;;;24.38;22.00;;;12.30;99.90;;;;;;5054311;28;20021;-81
2022/11/15 04:15:14;;;;;;;23.33;21.63;;;12.40;99.90;;;;;;5035081;28;20413;-81
2022/11/15 04:17:44;;;;;;;24.80;23.13;;;12.40;99.90;;;;;;5036977;28;20397;-81
2022/11/15 04:25:50;;;;;;;23.95;22.08;;;12.50;99.90;;;;;;5059295;28;19908;-81
2022/11/15 04:28:16;;;;;;;24.38;22.48;;;12.50;99.90;;;;;;5035227;28;20029;-81
2022/11/15 04:30:42;;;;;;;24.40;22.38;;;12.50;99.90;;;;;;5053996;28;20118;-81
2022/11/15 04:33:08;;;;;;;24.92;23.23;;;12.50;99.90;;;;;;5034663;28;20040;-81
2022/11/15 04:35:34;;;;;;;27.20;24.85;;;12.50;99.90;;;;;;5035690;28;20044;-81
2022/11/15 04:38:01;;;;;;;26.67;24.58;;;12.50;99.90;;;;;;5052963;28;20470;-81
2022/11/15 04:40:27;;;;;;;24.10;22.15;;;12.50;99.90;;;;;;5049968;28;20045;-79
2022/11/15 04:42:53;;;;;;;25.77;23.80;;;12.50;99.90;;;;;;5032377;28;20389;-81
2022/11/15 04:45:19;;;;;;;21.80;20.15;;;12.50;99.90;;;;;;5015450;28;20390;-80
2022/11/15 04:47:45;;;;;;;24.67;23.02;;;12.50;99.90;;;;;;5051317;28;20029;-81
2022/11/15 04:50:13;;;;;;;24.20;22.58;;;12.50;99.90;;;;;;5015009;28;20225;-81
2022/11/15 04:52:43;;;;;;;25.80;24.25;;;12.50;99.90;;;;;;5027832;28;20033;-82
2022/11/15 04:55:10;;;;;;;26.80;24.85;;;12.60;99.90;;;;;;5034265;28;20030;-81
2022/11/15 04:57:36;;;;;;;26.08;24.17;;;12.60;99.90;;;;;;5016724;28;20382;-82
2022/11/15 05:00:05;;;;;;;24.73;22.88;;;12.60;99.90;;;;;;5034054;28;20481;-81
2022/11/15 05:04:18;;;;;;;27.05;25.15;;;12.60;99.90;;;;;;5036178;28;20390;-80
2022/11/15 05:05:17;;;;;;;24.42;22.73;;;12.60;99.90;;;;;;5039387;28;20033;-80
2022/11/15 05:07:43;;;;;;;30.17;27.55;;;12.60;99.90;;;;;;5033679;28;20032;-80
2022/11/15 05:10:09;;;;;;;25.35;23.33;;;12.60;99.90;;;;;;5050366;28;20033;-80
2022/11/15 05:12:35;;;;;;;28.85;27.13;;;12.60;99.90;;;;;;5033479;28;20037;-80
2022/11/15 05:15:01;;;;;;;29.42;27.33;;;12.60;99.90;;;;;;5031321;28;20029;-80
2022/11/15 05:17:27;;;;;;;29.02;27.02;;;12.60;99.90;;;;;;5035201;28;20044;-80
2022/11/15 05:19:53;;;;;;;26.65;24.75;;;12.60;99.90;;;;;;5035551;28;20057;-80
2022/11/15 05:22:19;;;;;;;28.67;26.23;;;12.60;99.90;;;;;;5018781;28;20390;-81
2022/11/15 05:24:46;;;;;;;27.02;24.60;;;12.60;99.90;;;;;;5018140;28;20493;-80
2022/11/15 05:27:12;;;;;;;27.27;25.33;;;12.50;99.90;;;;;;5035688;28;20037;-80
2022/11/15 05:29:38;;;;;;;25.98;24.15;;;12.50;99.90;;;;;;5054447;28;20409;-81
2022/11/15 05:32:05;;;;;;;25.17;23.08;;;12.50;99.90;;;;;;5052269;28;20037;-81
2022/11/15 05:34:31;;;;;;;24.40;22.75;;;12.50;99.90;;;;;;5015568;28;20505;-81
2022/11/15 05:36:57;;;;;;;22.38;20.67;;;12.40;99.90;;;;;;5036098;28;20032;-82
2022/11/15 05:39:25;;;;;;;23.77;22.27;;;12.40;99.90;;;;;;5018990;28;20041;-81
2022/11/15 05:41:54;;;;;;;22.35;20.92;;;12.40;99.90;;;;;;5053022;28;20052;-81
2022/11/15 05:44:22;;;;;;;23.70;21.90;;;12.40;99.90;;;;;;5036109;28;20025;-83
2022/11/15 05:46:48;;;;;;;25.15;23.15;;;12.40;99.90;;;;;;5019350;28;20037;-82
2022/11/15 05:49:16;;;;;;;23.92;22.02;;;12.40;99.90;;;;;;5019828;28;20482;-81
2022/11/15 05:51:42;;;;;;;23.77;22.30;;;12.40;99.90;;;;;;5034667;28;20020;-82
2022/11/15 05:54:09;;;;;;;23.92;22.58;;;12.40;99.90;;;;;;5013479;28;20049;-82
2022/11/15 05:56:35;;;;;;;26.67;24.90;;;12.30;99.90;;;;;;5048559;28;20421;-81
2022/11/15 05:59:01;;;;;;;26.27;24.27;;;12.40;99.90;;;;;;5053263;28;20024;-82
2022/11/15 06:01:27;;;;;;;26.35;24.63;;;12.40;99.90;;;;;;5053214;28;20040;-82
2022/11/15 06:03:53;;;;;;;27.38;25.48;;;12.40;99.90;;;;;;5033887;28;20509;-80
2022/11/15 06:06:19;;;;;;;27.35;25.55;;;12.40;99.90;;;;;;5033556;28;20044;-82
2022/11/15 06:08:45;;;;;;;27.42;25.77;;;12.40;99.90;;;;;;5052865;28;20036;-82
2022/11/15 06:11:11;;;;;;;29.55;27.67;;;12.40;99.90;;;;;;5034833;28;20044;-82
2022/11/15 06:13:37;;;;;;;32.72;30.55;;;12.50;99.90;;;;;;5044766;28;20026;-82
2022/11/15 06:16:04;;;;;;;31.92;29.98;;;12.40;99.90;;;;;;5027247;28;20052;-81
2022/11/15 06:18:33;;;;;;;31.98;29.92;;;12.40;99.90;;;;;;5053058;28;20025;-81
2022/11/15 06:20:59;;;;;;;32.08;30.08;;;12.40;99.90;;;;;;5031940;28;20189;-81
2022/11/15 06:23:25;;;;;;;33.35;31.08;;;12.40;99.90;;;;;;5032539;28;20028;-81
2022/11/15 06:25:51;;;;;;;30.08;27.98;;;12.40;99.90;;;;;;5009825;28;20191;-81
2022/11/15 06:28:17;;;;;;;32.70;30.65;;;12.30;99.90;;;;;;5052968;28;20029;-81
2022/11/15 06:30:44;;;;;;;33.13;30.60;;;12.30;99.90;;;;;;5034754;28;20037;-82
2022/11/15 06:33:10;;;;;;;32.78;30.65;;;12.40;99.90;;;;;;5052481;28;20037;-82
2022/11/15 06:35:36;;;;;;;31.63;29.70;;;12.40;99.90;;;;;;5051587;28;20044;-82
2022/11/15 06:38:07;;;;;;;32.92;31.02;;;12.40;99.90;;;;;;5048723;28;20517;-81
2022/11/15 06:40:37;;;;;;;33.92;31.63;;;12.40;99.90;;;;;;5000649;28;20052;-81
2022/11/15 06:43:03;;;;;;;32.58;30.58;;;12.40;99.90;;;;;;5049662;28;20048;-82
2022/11/15 06:45:30;;;;;;;32.30;30.10;;;12.30;99.90;;;;;;5034401;28;20048;-81
2022/11/15 06:47:56;;;;;;;31.42;29.58;;;12.40;99.90;;;;;;5050926;28;20036;-82
2022/11/15 06:50:22;;;;;;;30.17;28.35;;;12.30;99.90;;;;;;5049891;28;20048;-81
2022/11/15 06:52:48;;;;;;;33.88;31.67;;;12.30;99.90;;;;;;5050789;28;20032;-81
2022/11/15 06:55:14;;;;;;;32.38;30.42;;;12.30;99.90;;;;;;5051073;28;20461;-82
2022/11/15 06:57:50;;;;;;;34.22;32.05;;;12.30;99.90;;;;;;5017059;28;20041;-83
2022/11/15 07:00:18;;;;;;;32.38;30.17;;;12.40;99.90;;;;;;5032667;28;20033;-82
2022/11/15 07:02:44;;;;;;;33.80;31.55;;;12.40;99.90;;;;;;5051288;28;20021;-82
2022/11/15 07:05:10;;;;;;;30.73;28.95;;;12.40;99.90;;;;;;5033219;28;20048;-82
2022/11/15 07:07:37;;;;;;;32.00;29.85;;;12.30;99.90;;;;;;5018439;28;20092;-82
2022/11/15 07:10:03;;;;;;;29.88;27.80;;;12.40;99.90;;;;;;5034499;28;20032;-81
2022/11/15 07:12:29;;;;;;;29.92;28.02;;;12.30;99.90;;;;;;5034541;28;20044;-82
2022/11/15 07:14:55;;;;;;;28.80;26.55;;;12.30;99.90;;;;;;5032973;28;20048;-85
2022/11/15 07:17:21;;;;;;;29.15;27.42;;;12.30;99.90;;;;;;5017499;28;20025;-84
2022/11/15 07:19:47;;;;;;;30.67;28.52;;;12.40;99.90;;;;;;5032597;28;20108;-87
2022/11/15 07:22:14;;;;;;;31.63;29.83;;;12.40;99.90;;;;;;5050075;28;20077;-83
2022/11/15 07:24:40;;;;;;;30.05;28.13;;;12.40;99.90;;;;;;5051369;28;20032;-84
2022/11/15 07:27:06;;;;;;;31.20;29.30;;;12.40;99.90;;;;;;5034434;28;20040;-82
2022/11/15 07:29:32;;;;;;;32.88;30.65;;;12.40;99.90;;;;;;5051138;28;20485;-83
2022/11/15 07:31:58;;;;;;;32.35;30.50;;;12.40;99.90;;;;;;5051673;28;20033;-83
2022/11/15 07:34:24;;;;;;;32.85;30.58;;;12.40;99.90;;;;;;5017375;28;20041;-81
2022/11/15 07:36:51;;;;;;;30.80;29.00;;;12.40;99.90;;;;;;5050744;28;20028;-81
2022/11/15 07:39:17;;;;;;;32.92;30.67;;;12.40;99.90;;;;;;5051331;28;20029;-83
2022/11/15 07:41:43;;;;;;;37.22;34.47;;;12.40;99.90;;;;;;5044164;28;20041;-80
2022/11/15 07:44:09;;;;;;;37.47;35.28;;;12.40;99.90;;;;;;5050569;28;20040;-81
2022/11/15 07:46:35;;;;;;;39.00;36.50;;;12.40;99.90;;;;;;5026849;28;20033;-84
2022/11/15 07:49:01;;;;;;;38.90;36.15;;;12.40;99.90;;;;;;5050828;28;20032;-81
2022/11/15 07:51:27;;;;;;;40.50;38.00;;;12.40;99.90;;;;;;5052137;28;20496;-82
2022/11/15 07:53:53;;;;;;;42.97;40.33;;;12.40;99.90;;;;;;5033621;28;20029;-82
2022/11/15 07:56:20;;;;;;;45.63;42.97;;;12.40;99.90;;;;;;5033247;28;20481;-82
2022/11/15 07:58:47;;;;;;;42.25;39.78;;;12.40;99.90;;;;;;5049649;28;20381;-82
2022/11/15 08:01:13;;;;;;;44.60;41.95;;;12.40;99.90;;;;;;5033075;28;20052;-82
2022/11/15 08:03:39;;;;;;;47.95;45.35;;;12.40;99.90;;;;;;5051703;28;20036;-82
2022/11/15 08:06:05;;;;;;;42.33;40.08;;;12.40;99.90;;;;;;5031302;28;20488;-82
2022/11/15 08:08:31;;;;;;;43.88;41.10;;;12.40;99.90;;;;;;5031770;28;20041;-83
2022/11/15 08:10:58;;;;;;;40.90;38.45;;;12.50;99.90;;;;;;5033432;28;20040;-85
2022/11/15 08:13:24;;;;;;;44.10;41.17;;;12.50;99.90;;;;;;5017482;28;20033;-83
2022/11/15 08:15:50;;;;;;;44.10;40.83;;;12.50;99.90;;;;;;5015206;28;20033;-84
2022/11/15 08:18:16;;;;;;;43.15;40.25;;;12.50;99.90;;;;;;5055017;28;20717;-88
2022/11/15 08:20:42;;;;;;;40.03;37.53;;;12.50;99.90;;;;;;5019500;28;20037;-89
2022/11/15 08:23:10;;;;;;;41.28;38.97;;;12.50;99.90;;;;;;5018902;28;20037;-92
2022/11/15 08:25:36;;;;;;;43.50;40.88;;;12.50;99.90;;;;;;5035550;28;20493;-86
2022/11/15 08:28:04;;;;;;;44.80;41.90;;;12.50;99.90;;;;;;5035356;28;20026;-83
2022/11/15 08:30:31;;;;;;;42.55;40.03;;;12.60;99.90;;;;;;5025650;28;20040;-82
2022/11/15 08:32:57;;;;;;;40.13;37.72;;;12.60;99.90;;;;;;5054612;28;20032;-83
2022/11/15 08:35:24;;;;;;;38.83;36.42;;;12.60;99.90;;;;;;5037070;28;20089;-82
2022/11/15 08:37:50;;;;;;;37.85;35.53;;;12.60;99.90;;;;;;5033123;28;20028;-84
2022/11/15 08:40:17;;;;;;;40.20;37.72;;;12.60;99.90;;;;;;5032363;28;20048;-83
2022/11/15 08:42:43;;;;;;;38.70;36.35;;;12.60;99.90;;;;;;5033162;28;20036;-83
2022/11/15 08:45:09;;;;;;;40.50;38.33;;;12.60;99.90;;;;;;5000745;28;20034;-84
2022/11/15 08:47:35;;;;;;;38.67;36.38;;;12.60;99.90;;;;;;5044709;28;20044;-83
2022/11/15 08:50:02;;;;;;;41.47;39.25;;;12.60;99.90;;;;;;5036548;28;20396;-81
2022/11/15 08:52:28;;;;;;;43.35;40.80;;;12.60;99.90;;;;;;5054219;28;20029;-81
2022/11/15 08:54:54;;;;;;;43.05;40.80;;;12.60;99.90;;;;;;5036332;28;20397;-81
2022/11/15 08:57:20;;;;;;;42.85;40.50;;;12.60;99.90;;;;;;5037000;28;20040;-80
2022/11/15 08:59:46;;;;;;;38.58;36.58;;;12.60;99.90;;;;;;5055048;28;20381;-83
2022/11/15 09:02:15;;;;;;;42.15;39.90;;;12.60;99.90;;;;;;5035170;28;20052;-85
2022/11/15 09:04:42;;;;;;;38.90;36.92;;;12.70;99.90;;;;;;5036314;28;20381;-80
2022/11/15 09:07:09;;;;;;;38.05;36.00;;;12.70;99.90;;;;;;5047865;28;20052;-83
2022/11/15 09:09:35;;;;;;;30.77;29.13;;;12.70;99.90;;;;;;5013823;28;20044;-81
2022/11/15 09:12:02;;;;;;;30.48;28.92;;;12.70;99.90;;;;;;5042424;28;20036;-82
2022/11/15 09:14:28;;;;;;;31.35;29.75;;;12.70;99.90;;;;;;5036063;28;20481;-82
2022/11/15 09:16:55;;;;;;;29.67;28.00;;;12.70;99.90;;;;;;5052292;28;20406;-82
2022/11/15 09:19:21;;;;;;;30.98;29.05;;;12.70;99.90;;;;;;5053681;28;20037;-81
2022/11/15 09:21:47;;;;;;;32.53;30.60;;;12.70;99.90;;;;;;5054076;28;20055;-81
2022/11/15 09:24:13;;;;;;;31.60;29.58;;;12.70;99.90;;;;;;5049905;28;20374;-82
2022/11/15 09:26:40;;;;;;;32.42;30.70;;;12.70;99.90;;;;;;5016331;28;20064;-81
2022/11/15 09:29:06;;;;;;;33.92;32.13;;;12.70;99.90;;;;;;5052604;28;20028;-81
2022/11/15 09:31:32;;;;;;;34.42;32.70;;;12.70;99.90;;;;;;5053005;28;20041;-82
2022/11/15 09:33:58;;;;;;;35.20;33.10;;;12.70;99.90;;;;;;5035181;28;20478;-81
2022/11/15 09:36:24;;;;;;;32.28;30.55;;;12.70;99.90;;;;;;5034926;28;20033;-81
2022/11/15 09:38:50;;;;;;;34.53;32.75;;;12.70;99.90;;;;;;5044469;28;20037;-88
2022/11/15 09:41:25;;;;;;;34.22;32.47;;;12.70;99.90;;;;;;5020748;28;20398;-87
2022/11/15 09:44:10;;;;;;;34.20;32.50;;;12.80;99.90;;;;;;5021341;28;20038;-88
2022/11/15 09:47:00;;;;;;;33.28;31.38;;;12.80;99.90;;;;;;5015729;28;20474;-88
2022/11/15 09:49:30;;;;;;;32.75;30.85;;;12.90;99.90;;;;;;5015839;28;20036;-89
2022/11/15 09:51:56;;;;;;;27.95;26.40;;;13.00;99.90;;;;;;5027888;28;20041;-87
2022/11/15 09:54:33;;;;;;;33.03;31.23;;;13.10;99.90;;;;;;5029244;28;20045;-88
2022/11/15 09:57:14;;;;;;;41.30;39.00;;;13.10;99.90;;;;;;5029723;28;20065;-90
2022/11/15 10:00:08;;;;;;;43.30;40.80;;;13.10;99.90;;;;;;5009944;28;20041;-87
2022/11/15 10:02:58;;;;;;;40.50;37.65;;;13.20;99.90;;;;;;5028882;28;20045;-85
2022/11/15 10:05:25;;;;;;;57.72;54.28;;;13.30;99.90;;;;;;5028879;28;20060;-88
2022/11/15 10:08:12;;;;;;;51.72;48.97;;;13.30;99.90;;;;;;5029860;28;20032;-89
2022/11/15 10:10:41;;;;;;;44.20;41.72;;;13.40;99.90;;;;;;5029492;28;20029;-89
2022/11/15 10:13:25;;;;;;;57.53;54.15;;;13.50;99.90;;;;;;5008424;28;20037;-88
2022/11/15 10:15:53;;;;;;;40.88;38.67;;;13.50;99.90;;;;;;5029857;28;20037;-91
2022/11/15 10:18:53;;;;;;;39.40;37.15;;;13.60;99.90;;;;;;5014305;28;20037;-88
2022/11/15 10:21:22;;;;;;;44.25;41.85;;;13.50;99.90;;;;;;5028743;28;20059;-90
2022/11/15 10:23:48;;;;;;;44.58;42.08;;;13.50;99.90;;;;;;5029710;28;20033;-88
2022/11/15 10:26:16;;;;;;;43.00;40.63;;;13.50;99.90;;;;;;5013435;28;20040;-87
2022/11/15 10:28:42;;;;;;;36.90;34.78;;;13.50;99.90;;;;;;5031729;28;20036;-88
2022/11/15 10:31:28;;;;;;;45.35;42.65;;;13.50;99.90;;;;;;5030255;28;20040;-88
2022/11/15 10:34:14;;;;;;;38.28;35.95;;;13.60;99.90;;;;;;5031569;28;20033;-88
2022/11/15 10:36:56;;;;;;;34.45;32.55;;;13.60;99.90;;;;;;5033197;28;20032;-88
2022/11/15 10:39:22;;;;;;;38.42;36.00;;;13.80;99.90;;;;;;5029904;28;20029;-87
2022/11/15 10:41:48;;;;;;;34.35;32.35;;;13.70;99.90;;;;;;5030760;28;20052;-87
2022/11/15 10:44:24;;;;;;;36.45;34.40;;;13.80;99.90;;;;;;5031122;28;20029;-87
2022/11/15 10:46:56;;;;;;;34.67;32.70;;;13.80;99.90;;;;;;5031103;28;20033;-88
2022/11/15 10:49:29;;;;;;;47.63;45.13;;;13.90;99.90;;;;;;5028966;28;20490;-85
2022/11/15 10:52:11;;;;;;;32.03;30.10;;;14.00;99.90;;;;;;5018469;28;20029;-85
2022/11/15 10:54:42;;;;;;;33.38;31.52;;;13.90;99.90;;;;;;5030859;28;20044;-86
2022/11/15 10:57:30;;;;;;;28.15;26.63;;;13.90;99.90;;;;;;5012176;28;20616;-88
2022/11/15 11:00:01;;;;;;;29.70;28.10;;;14.00;99.90;;;;;;5015155;28;20060;-87
2022/11/15 11:02:29;;;;;;;30.42;28.80;;;14.00;99.90;;;;;;5024407;28;20053;-85
2022/11/15 11:04:55;;;;;;;26.00;24.67;;;14.00;99.90;;;;;;5030547;28;20064;-84
2022/11/15 11:07:24;;;;;;;27.63;26.02;;;14.00;99.90;;;;;;5030273;28;20036;-85
2022/11/15 11:09:58;;;;;;;25.20;23.60;;;14.00;99.90;;;;;;5013512;28;20115;-83
2022/11/15 11:12:32;;;;;;;23.83;22.52;;;14.00;99.90;;;;;;5027176;28;20017;-84
2022/11/15 11:15:02;;;;;;;25.70;24.30;;;14.00;99.90;;;;;;5025151;28;20045;-84
2022/11/15 11:17:59;;;;;;;35.53;33.58;;;14.00;99.90;;;;;;5029311;28;20040;-84
2022/11/15 11:20:41;;;;;;;30.60;28.92;;;14.00;99.90;;;;;;5025000;28;20029;-83
2022/11/15 11:23:38;;;;;;;35.70;33.70;;;14.00;99.90;;;;;;5014972;28;20029;-84
2022/11/15 11:26:22;;;;;;;33.00;31.13;;;14.00;99.90;;;;;;5030722;28;20021;-84
2022/11/15 11:29:11;;;;;;;35.58;33.72;;;14.00;99.90;;;;;;5029484;28;20041;-84
2022/11/15 11:32:13;;;;;;;35.17;33.28;;;14.10;99.90;;;;;;5030500;28;20045;-83
2022/11/15 11:34:50;;;;;;;35.60;33.55;;;14.10;99.90;;;;;;4976608;28;20030;-84
2022/11/15 11:37:44;;;;;;;34.42;32.63;;;14.10;99.90;;;;;;4984559;28;20530;-81
2022/11/15 11:40:30;;;;;;;32.17;30.50;;;14.10;99.90;;;;;;4989333;28;20053;-81
2022/11/15 11:43:15;;;;;;;28.17;26.58;;;14.20;99.90;;;;;;4989322;28;20503;-81
2022/11/15 11:45:57;;;;;;;37.90;35.78;;;14.10;99.90;;;;;;4989208;28;20038;-81
2022/11/15 11:48:26;;;;;;;34.67;32.88;;;14.20;99.90;;;;;;4988339;28;20042;-81
2022/11/15 11:50:53;;;;;;;31.58;29.67;;;14.30;99.90;;;;;;4987331;28;20038;-80
2022/11/15 11:53:36;;;;;;;30.95;29.35;;;14.40;99.90;;;;;;4993370;28;20157;-80
2022/11/15 11:56:04;;;;;;;31.35;29.40;;;14.40;99.90;;;;;;4975516;28;20027;-80
2022/11/15 11:58:34;;;;;;;30.60;28.75;;;14.50;99.90;;;;;;4991760;28;20595;-80
2022/11/15 12:01:28;;;;;;;35.10;33.22;;;14.50;99.90;;;;;;4990857;28;20034;-80
2022/11/15 12:03:58;;;;;;;36.90;34.90;;;14.50;99.90;;;;;;4976324;28;20038;-80
2022/11/15 12:06:31;;;;;;;35.40;33.38;;;14.50;99.90;;;;;;4971883;28;20146;-85
2022/11/15 12:09:01;;;;;;;38.83;36.47;;;14.50;99.90;;;;;;4987629;28;20034;-87
2022/11/15 12:12:22;;;;;;;31.35;29.40;;;14.60;99.90;;;;;;5026704;28;20037;-86
2022/11/15 12:14:57;;;;;;;31.63;29.75;;;14.60;99.90;;;;;;4949962;29;20047;-88
2022/11/15 12:17:25;;;;;;;31.05;29.35;;;14.70;99.90;;;;;;4936025;28;20109;-87
2022/11/15 12:19:52;;;;;;;30.88;28.88;;;14.70;99.90;;;;;;4949641;29;20036;-86
2022/11/15 12:22:31;;;;;;;31.30;29.40;;;14.70;99.90;;;;;;4938513;29;20039;-86
2022/11/15 12:25:00;;;;;;;27.13;25.35;;;14.90;99.90;;;;;;4954368;29;21538;-86
2022/11/15 12:27:27;;;;;;;31.17;29.40;;;15.10;99.90;;;;;;4951550;29;20042;-81
2022/11/15 12:29:55;;;;;;;27.55;25.73;;;15.30;99.90;;;;;;4951673;29;20051;-81
2022/11/15 12:32:35;;;;;;;27.00;25.33;;;15.50;99.90;;;;;;4950793;28;20035;-81
2022/11/15 12:35:02;;;;;;;27.55;26.00;;;15.60;99.90;;;;;;4954091;29;20031;-81
2022/11/15 12:37:43;;;;;;;27.88;26.27;;;15.50;99.90;;;;;;4949825;29;20404;-81
2022/11/15 12:40:12;;;;;;;28.88;27.17;;;15.50;99.90;;;;;;4939330;28;20924;-81
2022/11/15 12:43:13;;;;;;;30.60;28.70;;;15.50;99.90;;;;;;4953724;28;20063;-80
2022/11/15 12:45:41;;;;;;;28.92;27.15;;;15.50;99.90;;;;;;4944203;28;20179;-80
2022/11/15 12:48:16;;;;;;;31.02;29.08;;;15.40;99.90;;;;;;4950792;28;20774;-80
2022/11/15 12:50:55;;;;;;;30.33;28.60;;;15.40;99.90;;;;;;4954822;28;20050;-81
2022/11/15 12:53:24;;;;;;;27.83;25.98;;;15.40;99.90;;;;;;5014526;28;20041;-81
2022/11/15 12:56:17;;;;;;;28.02;26.17;;;15.40;99.90;;;;;;5019519;28;20083;-81